createdAt,value
2022-11-20T00:00:57.541Z,9.80
2022-11-20T00:03:27.115Z,8.87
2022-11-20T00:05:54.998Z,9.23
2022-11-20T00:08:22.868Z,8.30
2022-11-20T00:10:50.742Z,8.63
2022-11-20T00:13:18.637Z,8.13
2022-11-20T00:15:46.547Z,7.90
2022-11-20T00:18:14.468Z,8.20
2022-11-20T00:20:43.730Z,8.33
2022-11-20T00:23:11.600Z,7.53
2022-11-20T00:25:39.484Z,8.53
2022-11-20T00:28:07.373Z,8.43
2022-11-20T00:30:35.306Z,7.50
2022-11-20T00:33:03.209Z,7.50
2022-11-20T00:35:31.660Z,8.60
2022-11-20T00:38:00.888Z,8.27
2022-11-20T00:40:28.800Z,8.27
2022-11-20T00:42:56.677Z,8.57
2022-11-20T00:45:24.579Z,8.73
2022-11-20T00:47:52.434Z,8.83
2022-11-20T00:50:20.299Z,8.60
2022-11-20T00:52:48.148Z,8.80
2022-11-20T00:55:17.545Z,8.40
2022-11-20T00:57:45.448Z,7.83
2022-11-20T01:00:13.625Z,9.03
2022-11-20T01:02:41.724Z,8.40
2022-11-20T01:05:09.850Z,8.73
2022-11-20T01:07:38.049Z,8.13
2022-11-20T01:10:07.048Z,9.47
2022-11-20T01:12:36.352Z,8.30
2022-11-20T01:15:04.475Z,8.63
2022-11-20T01:17:33.616Z,8.57
2022-11-20T01:20:01.530Z,8.00
2022-11-20T01:22:29.396Z,8.57
2022-11-20T01:24:57.264Z,8.70
2022-11-20T01:27:25.096Z,8.07
2022-11-20T01:29:58.298Z,8.40
2022-11-20T01:32:28.940Z,8.43
2022-11-20T01:34:56.808Z,8.83
2022-11-20T01:37:24.668Z,9.83
2022-11-20T01:39:52.536Z,8.77
2022-11-20T01:42:37.788Z,10.07
2022-11-20T01:45:44.233Z,8.73
2022-11-20T01:48:13.485Z,9.63
2022-11-20T01:50:43.875Z,9.27
2022-11-20T01:53:16.708Z,9.03
2022-11-20T01:55:48.643Z,10.07
2022-11-20T01:58:17.560Z,9.23
2022-11-20T02:00:45.500Z,10.57
2022-11-20T02:03:17.811Z,9.50
2022-11-20T02:05:49.823Z,9.03
2022-11-20T02:08:18.120Z,9.60
2022-11-20T02:10:45.954Z,8.73
2022-11-20T02:13:31.260Z,9.17
2022-11-20T02:15:59.281Z,8.97
2022-11-20T02:18:28.685Z,9.30
2022-11-20T02:21:05.968Z,9.93
2022-11-20T02:23:39.703Z,9.33
2022-11-20T02:26:13.740Z,9.93
2022-11-20T02:28:41.676Z,9.47
2022-11-20T02:31:09.740Z,9.87
2022-11-20T02:33:37.516Z,10.33
2022-11-20T02:36:06.151Z,9.60
2022-11-20T02:38:33.991Z,8.90
2022-11-20T02:41:01.752Z,10.83
2022-11-20T02:43:30.891Z,9.50
2022-11-20T02:45:58.707Z,9.07
2022-11-20T02:48:29.095Z,9.70
2022-11-20T02:50:59.138Z,9.57
2022-11-20T02:53:26.931Z,9.53
2022-11-20T02:55:54.690Z,9.57
2022-11-20T02:58:22.442Z,10.03
2022-11-20T03:00:51.641Z,10.17
2022-11-20T03:03:19.455Z,9.83
2022-11-20T03:05:47.227Z,9.70
2022-11-20T03:08:15.004Z,9.87
2022-11-20T03:10:42.780Z,9.27
2022-11-20T03:13:10.558Z,9.77
2022-11-20T03:15:38.718Z,9.10
2022-11-20T03:18:08.069Z,8.97
2022-11-20T03:20:36.300Z,9.80
2022-11-20T03:23:04.629Z,9.40
2022-11-20T03:25:32.640Z,9.60
2022-11-20T03:28:00.415Z,9.33
2022-11-20T03:30:30.729Z,9.30
2022-11-20T03:32:58.886Z,10.13
2022-11-20T03:35:28.015Z,9.93
2022-11-20T03:37:55.772Z,10.07
2022-11-20T03:40:23.583Z,10.40
2022-11-20T03:42:51.387Z,10.53
2022-11-20T03:45:20.216Z,10.73
2022-11-20T03:47:48.135Z,10.10
2022-11-20T03:50:16.469Z,10.53
2022-11-20T03:52:45.629Z,9.87
2022-11-20T03:55:13.407Z,9.80
2022-11-20T03:57:41.237Z,9.43
2022-11-20T04:00:09.916Z,11.27
2022-11-20T04:02:37.738Z,9.97
2022-11-20T04:05:06.003Z,10.07
2022-11-20T04:07:36.063Z,10.10
2022-11-20T04:10:05.869Z,11.03
2022-11-20T04:12:35.238Z,11.10
2022-11-20T04:15:03.171Z,10.33
2022-11-20T04:17:30.954Z,10.90
2022-11-20T04:19:58.742Z,10.67
2022-11-20T04:22:26.667Z,9.77
2022-11-20T04:24:54.440Z,10.63
2022-11-20T04:27:23.544Z,10.10
2022-11-20T04:29:51.311Z,10.83
2022-11-20T04:32:19.123Z,9.67
2022-11-20T04:34:46.879Z,11.30
2022-11-20T04:37:14.681Z,11.37
2022-11-20T04:39:42.568Z,11.53
2022-11-20T04:42:28.939Z,10.73
2022-11-20T04:44:58.912Z,10.63
2022-11-20T04:47:26.899Z,11.90
2022-11-20T04:49:54.751Z,11.53
2022-11-20T04:52:22.591Z,10.63
2022-11-20T04:54:53.563Z,11.10
2022-11-20T04:57:21.659Z,11.50
2022-11-20T04:59:49.444Z,10.97
2022-11-20T05:02:18.800Z,12.03
2022-11-20T05:04:46.576Z,10.93
2022-11-20T05:07:14.452Z,10.73
2022-11-20T05:09:42.323Z,10.67
2022-11-20T05:12:10.780Z,9.97
2022-11-20T05:14:38.533Z,11.20
2022-11-20T05:17:06.441Z,11.80
2022-11-20T05:19:35.530Z,11.20
2022-11-20T05:22:03.296Z,9.33
2022-11-20T05:24:31.032Z,11.83
2022-11-20T05:26:58.768Z,10.97
2022-11-20T05:29:26.560Z,9.73
2022-11-20T05:31:54.324Z,11.37
2022-11-20T05:34:22.087Z,9.17
2022-11-20T05:36:51.213Z,10.43
2022-11-20T05:39:19.202Z,10.30
2022-11-20T05:41:47.342Z,10.83
2022-11-20T05:44:15.276Z,11.03
2022-11-20T05:46:43.059Z,10.60
2022-11-20T05:49:10.965Z,10.07
2022-11-20T05:51:38.722Z,10.83
2022-11-20T05:54:07.859Z,10.03
2022-11-20T05:56:36.224Z,10.17
2022-11-20T05:59:07.330Z,10.47
2022-11-20T06:01:36.808Z,10.23
2022-11-20T06:04:04.685Z,10.13
2022-11-20T06:06:32.479Z,10.87
2022-11-20T06:09:00.701Z,10.93
2022-11-20T06:11:29.845Z,10.70
2022-11-20T06:13:57.587Z,10.10
2022-11-20T06:16:25.440Z,10.10
2022-11-20T06:18:53.227Z,10.43
2022-11-20T06:21:22.765Z,10.43
2022-11-20T06:23:51.861Z,10.00
2022-11-20T06:26:21.595Z,9.80
2022-11-20T06:28:51.194Z,10.57
2022-11-20T06:31:21.082Z,9.20
2022-11-20T06:33:49.919Z,9.40
2022-11-20T06:36:19.320Z,10.07
2022-11-20T06:38:47.105Z,10.50
2022-11-20T06:41:17.545Z,11.47
2022-11-20T06:43:45.620Z,11.10
2022-11-20T06:46:18.352Z,10.20
2022-11-20T06:48:46.416Z,9.73
2022-11-20T06:51:14.567Z,10.37
2022-11-20T06:53:42.418Z,11.23
2022-11-20T06:56:10.382Z,10.63
2022-11-20T06:58:38.518Z,11.23
2022-11-20T07:01:08.141Z,10.20
2022-11-20T07:03:37.748Z,11.37
2022-11-20T07:06:06.527Z,10.63
2022-11-20T07:08:34.713Z,10.70
2022-11-20T07:11:03.768Z,10.07
2022-11-20T07:13:32.450Z,10.03
2022-11-20T07:16:01.753Z,10.33
2022-11-20T07:18:29.541Z,9.60
2022-11-20T07:21:01.592Z,9.63
2022-11-20T07:23:29.482Z,10.20
2022-11-20T07:25:57.250Z,9.90
2022-11-20T07:28:25.081Z,9.93
2022-11-20T07:30:53.298Z,10.23
2022-11-20T07:33:21.540Z,10.90
2022-11-20T07:35:49.370Z,10.07
2022-11-20T07:38:18.635Z,10.00
2022-11-20T07:40:46.457Z,10.10
2022-11-20T07:43:14.265Z,11.63
2022-11-20T07:45:42.054Z,10.27
2022-11-20T07:48:09.850Z,10.30
2022-11-20T07:50:37.652Z,10.10
2022-11-20T07:53:06.686Z,10.47
2022-11-20T07:55:35.852Z,10.37
2022-11-20T07:58:03.616Z,10.27
2022-11-20T08:00:31.553Z,11.23
2022-11-20T08:02:59.569Z,11.27
2022-11-20T08:05:27.325Z,11.40
2022-11-20T08:07:55.110Z,11.00
2022-11-20T08:10:22.887Z,10.73
2022-11-20T08:13:10.788Z,10.13
2022-11-20T08:15:40.382Z,10.50
2022-11-20T08:20:57.457Z,10.20
2022-11-20T08:23:25.588Z,10.47
2022-11-20T08:25:53.556Z,9.83
2022-11-20T08:28:22.768Z,10.40
2022-11-20T08:30:50.769Z,9.77
2022-11-20T08:33:19.337Z,10.93
2022-11-20T08:35:47.316Z,10.23
2022-11-20T08:38:15.077Z,12.23
2022-11-20T08:41:02.851Z,11.30
2022-11-20T08:43:31.978Z,10.70
2022-11-20T08:46:00.031Z,11.00
2022-11-20T08:48:27.833Z,10.63
2022-11-20T08:50:55.611Z,10.07
2022-11-20T08:53:23.361Z,10.30
2022-11-20T08:55:51.155Z,11.10
2022-11-20T08:58:18.935Z,12.50
2022-11-20T09:00:48.105Z,11.53
2022-11-20T09:03:15.995Z,11.37
2022-11-20T09:05:44.137Z,11.63
2022-11-20T09:08:11.914Z,11.30
2022-11-20T09:10:40.562Z,12.37
2022-11-20T09:13:08.551Z,11.17
2022-11-20T09:15:36.441Z,12.03
2022-11-20T09:18:05.893Z,11.93
2022-11-20T09:20:33.924Z,11.83
2022-11-20T09:23:01.719Z,10.83
2022-11-20T09:25:29.496Z,12.37
2022-11-20T09:27:58.167Z,10.97
2022-11-20T09:30:26.640Z,10.83
2022-11-20T09:32:54.637Z,11.30
2022-11-20T09:35:23.746Z,11.43
2022-11-20T09:37:51.859Z,10.73
2022-11-20T09:40:22.422Z,11.50
2022-11-20T09:42:56.189Z,10.60
2022-11-20T09:45:39.965Z,11.07
2022-11-20T09:48:38.968Z,10.67
2022-11-20T09:51:17.640Z,10.07
2022-11-20T09:54:01.903Z,11.53
2022-11-20T09:56:30.735Z,11.87
2022-11-20T09:59:04.076Z,11.60
2022-11-20T10:01:35.944Z,11.20
2022-11-20T10:04:07.958Z,10.67
2022-11-20T10:06:49.347Z,11.03
2022-11-20T10:09:31.834Z,11.03
2022-11-20T10:12:14.064Z,10.97
2022-11-20T10:14:55.221Z,9.77
2022-11-20T10:17:35.779Z,10.93
2022-11-20T10:20:20.182Z,11.30
2022-11-20T10:23:03.548Z,10.60
2022-11-20T10:25:40.499Z,10.13
2022-11-20T10:28:41.389Z,9.27
2022-11-20T10:31:14.465Z,9.23
2022-11-20T10:34:13.528Z,9.30
2022-11-20T10:36:40.684Z,9.00
2022-11-20T10:39:21.104Z,8.90
2022-11-20T10:41:53.679Z,8.63
2022-11-20T10:44:37.619Z,8.50
2022-11-20T10:47:06.751Z,8.57
2022-11-20T10:49:35.543Z,8.77
2022-11-20T10:52:11.108Z,9.23
2022-11-20T10:54:49.473Z,8.17
2022-11-20T10:57:27.293Z,9.23
2022-11-20T11:00:05.323Z,9.47
2022-11-20T11:02:43.759Z,8.97
2022-11-20T11:05:27.811Z,8.13
2022-11-20T11:07:58.260Z,8.10
2022-11-20T11:10:34.883Z,8.67
2022-11-20T11:13:03.039Z,8.83
2022-11-20T11:15:39.022Z,13.63
2022-11-20T11:18:10.107Z,16.13
2022-11-20T11:20:38.217Z,12.27
2022-11-20T11:23:24.144Z,10.80
2022-11-20T11:26:00.481Z,8.80
2022-11-20T11:28:28.847Z,8.63
2022-11-20T11:30:57.022Z,8.40
2022-11-20T11:33:26.213Z,8.27
2022-11-20T11:35:57.910Z,9.50
2022-11-20T11:38:32.643Z,9.10
2022-11-20T11:41:03.074Z,7.83
2022-11-20T11:43:51.502Z,8.70
2022-11-20T11:46:29.165Z,8.93
2022-11-20T11:49:01.590Z,8.03
2022-11-20T11:51:37.268Z,7.90
2022-11-20T11:54:25.475Z,7.50
2022-11-20T11:56:55.607Z,6.53
2022-11-20T11:59:28.798Z,7.30
2022-11-20T12:02:01.582Z,6.40
2022-11-20T12:04:44.120Z,5.70
2022-11-20T12:07:44.868Z,6.80
2022-11-20T12:10:05.266Z,5.50
2022-11-20T12:12:41.372Z,5.13
2022-11-20T12:15:12.520Z,5.03
2022-11-20T12:17:40.327Z,4.43
2022-11-20T12:20:14.940Z,5.00
2022-11-20T12:22:52.367Z,5.00
2022-11-20T12:25:24.164Z,4.50
2022-11-20T12:28:06.986Z,4.53
2022-11-20T12:30:39.039Z,4.43
2022-11-20T12:33:22.841Z,4.90
2022-11-20T12:36:02.846Z,4.90
2022-11-20T12:39:13.343Z,4.37
2022-11-20T12:42:23.346Z,4.33
2022-11-20T12:45:26.550Z,3.63
2022-11-20T12:48:23.886Z,4.03
2022-11-20T12:51:19.849Z,3.93
2022-11-20T12:53:57.646Z,3.63
2022-11-20T12:56:35.333Z,3.50
2022-11-20T12:59:14.759Z,3.00
2022-11-20T13:01:55.379Z,3.20
2022-11-20T13:04:45.849Z,3.40
2022-11-20T13:07:16.202Z,3.20
2022-11-20T13:09:47.857Z,5.33
2022-11-20T13:12:21.720Z,5.13
2022-11-20T13:14:56.085Z,5.63
2022-11-20T13:17:32.734Z,5.57
2022-11-20T13:20:01.121Z,5.47
2022-11-20T13:22:30.621Z,5.27
2022-11-20T13:24:58.406Z,4.90
2022-11-20T13:27:26.286Z,5.13
2022-11-20T13:30:15.608Z,5.50
2022-11-20T13:32:53.873Z,5.20
2022-11-20T13:35:30.402Z,4.50
2022-11-20T13:38:03.250Z,5.33
2022-11-20T13:40:31.076Z,6.10
2022-11-20T13:43:09.212Z,7.03
2022-11-20T13:45:37.013Z,6.63
2022-11-20T13:48:20.426Z,5.83
2022-11-20T13:50:57.943Z,6.70
2022-11-20T13:54:13.237Z,6.30
2022-11-20T13:56:52.358Z,5.97
2022-11-20T13:59:38.399Z,6.23
2022-11-20T14:02:13.533Z,5.63
2022-11-20T14:04:47.020Z,5.90
2022-11-20T14:07:15.512Z,5.07
2022-11-20T14:09:52.624Z,5.30
2022-11-20T14:12:24.436Z,5.03
2022-11-20T14:14:54.242Z,5.33
2022-11-20T14:17:23.711Z,5.57
2022-11-20T14:19:54.535Z,5.53
2022-11-20T14:22:24.192Z,5.13
2022-11-20T14:25:05.751Z,5.13
2022-11-20T14:27:37.853Z,5.10
2022-11-20T14:30:06.788Z,5.33
2022-11-20T14:32:37.844Z,5.77
2022-11-20T14:35:11.404Z,5.53
2022-11-20T14:37:41.404Z,6.00
2022-11-20T14:40:26.389Z,6.27
2022-11-20T14:42:57.807Z,6.10
2022-11-20T14:45:26.660Z,6.80
2022-11-20T14:47:57.208Z,7.23
2022-11-20T14:50:28.434Z,6.43
2022-11-20T14:52:57.717Z,7.27
2022-11-20T14:55:33.875Z,6.67
2022-11-20T14:58:03.342Z,7.03
2022-11-20T15:00:33.060Z,6.97
2022-11-20T15:03:00.869Z,6.80
2022-11-20T15:05:47.658Z,6.77
2022-11-20T15:08:16.607Z,5.87
2022-11-20T15:10:49.256Z,6.43
2022-11-20T15:13:22.675Z,6.07
2022-11-20T15:15:51.872Z,6.20
2022-11-20T15:18:22.995Z,6.00
2022-11-20T15:20:52.892Z,6.10
2022-11-20T15:23:21.342Z,6.90
2022-11-20T15:25:50.307Z,6.13
2022-11-20T15:28:22.868Z,6.43
2022-11-20T15:30:51.604Z,6.13
2022-11-20T15:33:21.037Z,7.20
2022-11-20T15:35:48.843Z,7.83
2022-11-20T15:38:17.977Z,8.63
2022-11-20T15:40:45.764Z,9.20
2022-11-20T15:43:14.083Z,9.33
2022-11-20T15:45:45.713Z,8.60
2022-11-20T15:48:16.077Z,7.97
2022-11-20T15:50:52.698Z,8.70
2022-11-20T15:53:21.856Z,8.27
2022-11-20T15:55:49.688Z,7.73
2022-11-20T15:58:18.158Z,7.73
2022-11-20T16:00:46.351Z,7.57
2022-11-20T16:03:14.518Z,7.13
2022-11-20T16:05:42.407Z,7.57
2022-11-20T16:08:11.918Z,8.43
2022-11-20T16:10:41.816Z,7.57
2022-11-20T16:13:32.621Z,6.90
2022-11-20T16:16:03.103Z,9.27
2022-11-20T16:18:30.855Z,9.63
2022-11-20T16:20:58.740Z,9.83
2022-11-20T16:23:26.539Z,10.53
2022-11-20T16:25:55.676Z,10.37
2022-11-20T16:28:23.649Z,9.97
2022-11-20T16:30:51.424Z,9.13
2022-11-20T16:33:19.801Z,9.27
2022-11-20T16:35:47.600Z,8.53
2022-11-20T16:38:15.402Z,7.00
2022-11-20T16:40:43.186Z,6.63
2022-11-20T16:43:15.590Z,5.90
2022-11-20T16:45:44.885Z,5.33
2022-11-20T16:48:17.026Z,5.77
2022-11-20T16:50:48.561Z,6.13
2022-11-20T16:53:16.387Z,6.03
2022-11-20T16:55:44.175Z,6.27
2022-11-20T16:58:13.343Z,7.60
2022-11-20T17:00:45.581Z,7.23
2022-11-20T17:03:17.667Z,8.00
2022-11-20T17:05:45.456Z,7.40
2022-11-20T17:08:13.228Z,7.90
2022-11-20T17:10:41.003Z,8.37
2022-11-20T17:13:09.180Z,7.40
2022-11-20T17:15:38.375Z,6.77
2022-11-20T17:18:06.244Z,6.07
2022-11-20T17:20:34.018Z,5.73
2022-11-20T17:23:01.779Z,5.90
2022-11-20T17:25:29.552Z,5.13
2022-11-20T17:27:57.307Z,5.27
2022-11-20T17:30:25.061Z,5.57
2022-11-20T17:32:54.150Z,6.70
2022-11-20T17:35:21.925Z,7.70
2022-11-20T17:37:49.704Z,8.27
2022-11-20T17:40:17.651Z,7.03
2022-11-20T17:42:45.407Z,7.67
2022-11-20T17:45:13.198Z,7.20
2022-11-20T17:47:42.036Z,6.87
2022-11-20T17:50:11.582Z,5.57
2022-11-20T17:52:39.384Z,5.90
2022-11-20T17:55:08.284Z,5.70
2022-11-20T17:57:53.385Z,5.60
2022-11-20T18:00:22.149Z,6.20
2022-11-20T18:02:50.251Z,6.60
2022-11-20T18:05:19.462Z,5.70
2022-11-20T18:07:47.314Z,5.97
2022-11-20T18:10:15.221Z,6.70
2022-11-20T18:12:43.807Z,7.60
2022-11-20T18:15:11.625Z,9.20
2022-11-20T18:17:39.432Z,8.03
2022-11-20T18:22:58.411Z,8.67
2022-11-20T18:25:26.226Z,8.10
2022-11-20T18:27:54.005Z,7.53
2022-11-20T18:30:21.954Z,6.73
2022-11-20T18:32:49.986Z,6.73
2022-11-20T18:35:17.973Z,6.80
2022-11-20T18:37:45.736Z,7.10
2022-11-20T18:40:15.445Z,6.30
2022-11-20T18:43:00.689Z,5.93
2022-11-20T18:45:30.204Z,5.77
2022-11-20T18:47:58.042Z,6.10
2022-11-20T18:50:25.945Z,5.40
2022-11-20T18:52:53.933Z,6.53
2022-11-20T18:55:25.009Z,6.90
2022-11-20T18:57:53.929Z,7.23
2022-11-20T19:00:22.060Z,7.30
2022-11-20T19:02:53.300Z,7.50
2022-11-20T19:05:21.346Z,7.77
2022-11-20T19:07:49.358Z,6.80
2022-11-20T19:10:20.208Z,8.50
2022-11-20T19:12:49.700Z,8.40
2022-11-20T19:15:17.894Z,9.17
2022-11-20T19:17:45.850Z,8.80
2022-11-20T19:20:14.124Z,9.03
2022-11-20T19:22:42.107Z,8.83
2022-11-20T19:25:10.568Z,7.17
2022-11-20T19:27:39.044Z,8.30
2022-11-20T19:30:09.960Z,8.00
2022-11-20T19:32:38.578Z,7.27
2022-11-20T19:35:07.480Z,7.40
2022-11-20T19:37:35.647Z,6.97
2022-11-20T19:40:05.427Z,6.47
2022-11-20T19:42:34.026Z,5.60
2022-11-20T19:45:02.497Z,5.53
2022-11-20T19:48:00.637Z,4.97
2022-11-20T19:50:21.070Z,5.87
2022-11-20T19:52:52.044Z,4.83
2022-11-20T19:55:24.400Z,4.77
2022-11-20T19:57:52.878Z,5.10
2022-11-20T20:00:29.655Z,4.73
2022-11-20T20:03:02.706Z,5.10
2022-11-20T20:05:31.228Z,5.10
2022-11-20T20:07:59.744Z,5.17
2022-11-20T20:10:29.176Z,5.83
2022-11-20T20:12:57.732Z,4.90
2022-11-20T20:15:26.309Z,4.83
2022-11-20T20:17:55.129Z,4.77
2022-11-20T20:20:25.175Z,4.80
2022-11-20T20:22:53.651Z,5.53
2022-11-20T20:25:21.960Z,5.30
2022-11-20T20:27:50.499Z,5.73
2022-11-20T20:30:18.863Z,5.73
2022-11-20T20:32:48.860Z,5.07
2022-11-20T20:35:18.892Z,5.30
2022-11-20T20:37:48.526Z,5.57
2022-11-20T20:40:16.839Z,4.80
2022-11-20T20:42:44.812Z,4.67
2022-11-20T20:45:13.143Z,5.10
2022-11-20T20:47:42.334Z,5.07
2022-11-20T20:50:12.988Z,4.63
2022-11-20T20:52:41.433Z,5.43
2022-11-20T20:55:11.748Z,5.30
2022-11-20T20:57:39.689Z,4.50
2022-11-20T21:00:10.196Z,5.30
2022-11-20T21:02:38.102Z,4.90
2022-11-20T21:05:06.817Z,4.13
2022-11-20T21:07:34.785Z,4.37
2022-11-20T21:10:02.679Z,4.37
2022-11-20T21:12:31.839Z,4.27
2022-11-20T21:14:59.659Z,4.17
2022-11-20T21:17:27.990Z,3.90
2022-11-20T21:19:55.788Z,3.77
2022-11-20T21:22:22.584Z,3.77
2022-11-20T21:24:50.365Z,3.63
2022-11-20T21:27:18.127Z,3.30
2022-11-20T21:29:47.235Z,3.50
2022-11-20T21:32:15.022Z,2.93
2022-11-20T21:34:42.800Z,3.30
2022-11-20T21:37:10.585Z,3.23
2022-11-20T21:39:50.430Z,2.90
2022-11-20T21:42:18.396Z,3.17
2022-11-20T21:44:48.433Z,3.13
2022-11-20T21:47:16.260Z,2.90
2022-11-20T21:49:44.021Z,2.33
2022-11-20T21:52:11.818Z,2.60
2022-11-20T21:54:39.582Z,2.23
2022-11-20T21:57:07.384Z,2.10
2022-11-20T21:59:35.223Z,2.07
2022-11-20T22:02:04.582Z,1.93
2022-11-20T22:04:32.691Z,1.80
2022-11-20T22:07:00.594Z,1.53
2022-11-20T22:09:28.401Z,1.50
2022-11-20T22:11:56.195Z,1.47
2022-11-20T22:14:24.033Z,1.57
2022-11-20T22:16:53.784Z,1.73
2022-11-20T22:19:24.039Z,1.60
2022-11-20T22:21:52.090Z,1.70
2022-11-20T22:24:21.649Z,2.00
2022-11-20T22:26:50.023Z,1.60
2022-11-20T22:29:19.391Z,1.73
2022-11-20T22:31:47.685Z,1.87
2022-11-20T22:34:15.835Z,1.50
2022-11-20T22:36:45.473Z,1.70
2022-11-20T22:39:13.279Z,1.80
2022-11-20T22:41:41.029Z,1.70
2022-11-20T22:44:09.311Z,1.90
2022-11-20T22:46:38.660Z,1.50
2022-11-20T22:49:08.281Z,2.00
2022-11-20T22:51:38.202Z,1.50
2022-11-20T22:54:07.772Z,1.97
2022-11-20T22:56:35.647Z,1.47
2022-11-20T22:59:03.730Z,1.40
2022-11-20T23:01:33.332Z,1.60
2022-11-20T23:04:03.530Z,1.50
2022-11-20T23:06:33.971Z,1.40
2022-11-20T23:09:01.951Z,1.40
2022-11-20T23:11:32.512Z,1.23
2022-11-20T23:14:02.033Z,1.53
2022-11-20T23:16:31.780Z,1.40
2022-11-20T23:19:01.281Z,1.17
2022-11-20T23:21:29.483Z,1.20
2022-11-20T23:23:58.766Z,1.50
2022-11-20T23:26:28.427Z,1.70
2022-11-20T23:28:58.750Z,1.30
2022-11-20T23:31:27.512Z,1.40
2022-11-20T23:33:55.420Z,1.40
2022-11-20T23:36:23.251Z,1.30
2022-11-20T23:38:51.162Z,1.10
2022-11-20T23:41:19.123Z,1.20
2022-11-20T23:43:46.904Z,1.10
2022-11-20T23:46:16.932Z,1.30
2022-11-20T23:48:45.805Z,1.27
2022-11-20T23:51:14.230Z,1.40
2022-11-20T23:53:42.263Z,0.97
2022-11-20T23:56:10.045Z,1.40
2022-11-20T23:58:39.536Z,1.10
